Time;durP1;ratioP1;P1;durP2;ratioP2;P2;SDS_P1;SDS_P2;PMS_P1;PMS_P2;Temp;Humidity;BMP_temperature;BMP_pressure;BME280_temperature;BME280_humidity;BME280_pressure;Samples;Min_cycle;Max_cycle;Signal;HPM_P1;HPM_P2
2023/03/22 00:01:18;;;;;;;;;;;;;;;;;;4945989;28;19954;-81
2023/03/22 00:03:44;;;;;;;;;;;;;;;;;;4955391;28;19914;-79
2023/03/22 00:06:10;;;;;;;;;;;;;;;;;;4961193;28;19898;-83
2023/03/22 00:08:54;;;;;;;;;;;;;;;;;;4963914;28;20013;-83
2023/03/22 00:11:24;;;;;;;;;;;;;;;;;;4950113;28;19973;-84
2023/03/22 00:14:00;;;;;;;;;;;;;;;;;;4951070;28;19921;-84
2023/03/22 00:16:32;;;;;;;;;;;;;;;;;;4985728;28;19920;-83
2023/03/22 00:18:58;;;;;;;;;;;;;;;;;;5002911;28;19979;-83
2023/03/22 00:21:37;;;;;;;;;;;;;;;;;;5007868;28;19909;-82
2023/03/22 00:24:25;;;;;;;;;;;;;;;;;;5141625;23;19957;-80
2023/03/22 00:26:51;;;;;;;;;;;;;;;;;;4943178;28;19914;-80
2023/03/22 00:29:18;;;;;;;;;;;;;;;;;;4959911;28;19915;-79
2023/03/22 00:31:43;;;;;;;;;;;;;;;;;;4944365;28;19918;-79
2023/03/22 00:34:09;;;;;;;;;;;;;;;;;;4977669;28;19914;-79
2023/03/22 00:36:36;;;;;;;;;;;;;;;;;;4960029;28;19914;-78
2023/03/22 00:39:02;;;;;;;;;;;;;;;;;;4960452;28;19914;-79
2023/03/22 00:41:27;;;;;;;;;;;;;;;;;;4943065;28;20009;-79
2023/03/22 00:43:52;;;;;;;;;;;;;;;;;;4958811;28;20159;-79
2023/03/22 00:46:18;;;;;;;;;;;;;;;;;;4957793;28;19914;-81
2023/03/22 00:48:44;;;;;;;;;;;;;;;;;;4958687;28;19918;-79
2023/03/22 00:51:09;;;;;;;;;;;;;;;;;;4974515;28;19914;-80
2023/03/22 00:53:36;;;;;;;;;;;;;;;;;;4960688;28;19929;-79
2023/03/22 00:56:01;;;;;;;;;;;;;;;;;;4949533;29;20003;-79
2023/03/22 00:58:32;;;;;;;;;;;;;;;;;;4952386;28;20195;-77
2023/03/22 01:00:57;;;;;;;;;;;;;;;;;;4959492;28;20357;-78
2023/03/22 01:03:23;;;;;;;;;;;;;;;;;;4954300;29;19919;-79
2023/03/22 01:05:49;;;;;;;;;;;;;;;;;;4961337;28;19973;-79
2023/03/22 01:08:15;;;;;;;;;;;;;;;;;;4947233;29;20282;-79
2023/03/22 01:10:40;;;;;;;;;;;;;;;;;;4969318;28;19914;-80
2023/03/22 01:13:06;;;;;;;;;;;;;;;;;;4925672;28;19919;-78
2023/03/22 01:15:31;;;;;;;;;;;;;;;;;;4952534;29;19915;-79
2023/03/22 01:17:57;;;;;;;;;;;;;;;;;;4962167;28;20381;-79
2023/03/22 01:20:22;;;;;;;;;;;;;;;;;;4963249;28;19919;-79
2023/03/22 01:22:47;;;;;;;;;;;;;;;;;;4969737;28;20012;-78
2023/03/22 01:25:13;;;;;;;;;;;;;;;;;;4956056;28;19929;-78
2023/03/22 01:27:38;;;;;;;;;;;;;;;;;;4968916;28;19910;-77
2023/03/22 01:30:03;;;;;;;;;;;;;;;;;;4947034;28;19914;-77
2023/03/22 01:32:29;;;;;;;;;;;;;;;;;;4961543;28;20012;-79
2023/03/22 01:34:54;;;;;;;;;;;;;;;;;;4970453;28;19953;-77
2023/03/22 01:37:20;;;;;;;;;;;;;;;;;;4941949;28;19998;-78
2023/03/22 01:39:47;;;;;;;;;;;;;;;;;;4967408;28;19914;-78
2023/03/22 01:42:14;;;;;;;;;;;;;;;;;;4949644;28;19914;-77
2023/03/22 01:44:40;;;;;;;;;;;;;;;;;;4943813;29;19921;-77
2023/03/22 01:47:05;;;;;;;;;;;;;;;;;;4971477;28;20397;-79
2023/03/22 01:49:31;;;;;;;;;;;;;;;;;;4953449;29;20013;-79
2023/03/22 01:51:56;;;;;;;;;;;;;;;;;;4962264;28;20319;-78
2023/03/22 01:54:36;;;;;;;;;;;;;;;;;;4958024;28;19921;-78
2023/03/22 01:57:12;;;;;;;;;;;;;;;;;;4943370;28;20386;-78
2023/03/22 01:59:40;;;;;;;;;;;;;;;;;;4948598;28;19964;-78
2023/03/22 02:02:29;;;;;;;;;;;;;;;;;;4967108;28;19930;-78
2023/03/22 02:05:00;;;;;;;;;;;;;;;;;;4973960;28;19949;-79
2023/03/22 02:07:27;;;;;;;;;;;;;;;;;;4981345;28;19910;-79
2023/03/22 02:09:54;;;;;;;;;;;;;;;;;;4976199;28;19922;-79
2023/03/22 02:12:21;;;;;;;;;;;;;;;;;;4977931;28;19922;-79
2023/03/22 02:14:46;;;;;;;;;;;;;;;;;;4963416;28;19902;-79
2023/03/22 02:17:31;;;;;;;;;;;;;;;;;;4973222;28;19976;-78
2023/03/22 02:20:05;;;;;;;;;;;;;;;;;;4957876;28;19914;-78
2023/03/22 02:22:37;;;;;;;;;;;;;;;;;;4957537;28;19962;-79
2023/03/22 02:25:03;;;;;;;;;;;;;;;;;;4957323;28;19917;-79
2023/03/22 02:27:28;;;;;;;;;;;;;;;;;;4957817;28;20286;-78
2023/03/22 02:29:54;;;;;;;;;;;;;;;;;;4942318;28;19918;-79
2023/03/22 02:32:20;;;;;;;;;;;;;;;;;;4958235;28;19929;-78
2023/03/22 02:34:45;;;;;;;;;;;;;;;;;;4975936;28;19969;-78
2023/03/22 02:37:11;;;;;;;;;;;;;;;;;;4961648;28;19914;-78
2023/03/22 02:39:36;;;;;;;;;;;;;;;;;;4965426;28;19914;-78
2023/03/22 02:42:02;;;;;;;;;;;;;;;;;;4965532;28;20267;-78
2023/03/22 02:44:27;;;;;;;;;;;;;;;;;;4983087;28;19918;-78
2023/03/22 02:46:53;;;;;;;;;;;;;;;;;;4950748;28;19926;-78
2023/03/22 02:49:18;;;;;;;;;;;;;;;;;;4965962;28;20009;-78
2023/03/22 02:51:43;;;;;;;;;;;;;;;;;;4933780;28;20437;-78
2023/03/22 02:54:09;;;;;;;;;;;;;;;;;;4965163;28;19921;-78
2023/03/22 02:56:34;;;;;;;;;;;;;;;;;;4948733;28;20005;-78
2023/03/22 02:59:00;;;;;;;;;;;;;;;;;;4965312;28;19914;-78
2023/03/22 03:01:25;;;;;;;;;;;;;;;;;;4982153;28;19917;-78
2023/03/22 03:03:51;;;;;;;;;;;;;;;;;;4982632;28;19914;-78
2023/03/22 03:06:16;;;;;;;;;;;;;;;;;;4964262;28;19938;-78
2023/03/22 03:08:41;;;;;;;;;;;;;;;;;;4964284;28;20369;-78
2023/03/22 03:11:07;;;;;;;;;;;;;;;;;;4981791;28;19918;-78
2023/03/22 03:13:32;;;;;;;;;;;;;;;;;;4948106;28;19926;-78
2023/03/22 03:15:58;;;;;;;;;;;;;;;;;;4946850;28;19914;-78
2023/03/22 03:18:24;;;;;;;;;;;;;;;;;;4963276;28;19925;-78
2023/03/22 03:20:51;;;;;;;;;;;;;;;;;;4962892;28;19914;-78
2023/03/22 03:23:18;;;;;;;;;;;;;;;;;;4946687;28;19925;-78
2023/03/22 03:25:45;;;;;;;;;;;;;;;;;;4961810;28;19914;-78
2023/03/22 03:28:10;;;;;;;;;;;;;;;;;;4961951;28;19914;-78
2023/03/22 03:30:37;;;;;;;;;;;;;;;;;;4979428;28;19937;-78
2023/03/22 03:33:03;;;;;;;;;;;;;;;;;;4980005;28;19918;-78
2023/03/22 03:35:28;;;;;;;;;;;;;;;;;;4980782;28;20017;-78
2023/03/22 03:37:53;;;;;;;;;;;;;;;;;;4948137;28;19961;-78
2023/03/22 03:40:19;;;;;;;;;;;;;;;;;;4981442;28;19914;-78
2023/03/22 03:42:44;;;;;;;;;;;;;;;;;;4979260;28;19921;-78
2023/03/22 03:45:09;;;;;;;;;;;;;;;;;;4978834;28;20312;-77
2023/03/22 03:47:36;;;;;;;;;;;;;;;;;;4979242;28;20416;-78
2023/03/22 03:50:02;;;;;;;;;;;;;;;;;;4975490;28;19949;-79
2023/03/22 03:52:28;;;;;;;;;;;;;;;;;;4958730;28;19957;-79
2023/03/22 03:54:53;;;;;;;;;;;;;;;;;;4959952;28;19941;-79
2023/03/22 03:57:25;;;;;;;;;;;;;;;;;;4947024;28;19918;-79
2023/03/22 03:59:50;;;;;;;;;;;;;;;;;;4978756;28;19922;-78
2023/03/22 04:02:26;;;;;;;;;;;;;;;;;;4960265;28;20001;-79
2023/03/22 04:04:54;;;;;;;;;;;;;;;;;;4958413;28;19918;-79
2023/03/22 04:07:19;;;;;;;;;;;;;;;;;;4943737;28;19921;-77
2023/03/22 04:09:44;;;;;;;;;;;;;;;;;;4975906;28;20408;-79
2023/03/22 04:12:18;;;;;;;;;;;;;;;;;;4958570;28;20465;-77
2023/03/22 04:15:01;;;;;;;;;;;;;;;;;;4958217;28;20444;-78
2023/03/22 04:17:28;;;;;;;;;;;;;;;;;;4958296;28;19920;-79
2023/03/22 04:19:55;;;;;;;;;;;;;;;;;;4958422;28;20473;-79
2023/03/22 04:22:20;;;;;;;;;;;;;;;;;;4941699;28;20386;-79
2023/03/22 04:24:48;;;;;;;;;;;;;;;;;;4957155;28;21311;-78
2023/03/22 04:27:14;;;;;;;;;;;;;;;;;;4926406;28;20378;-77
2023/03/22 04:29:59;;;;;;;;;;;;;;;;;;4928905;28;20373;-79
2023/03/22 04:32:48;;;;;;;;;;;;;;;;;;4975048;28;19977;-78
2023/03/22 04:35:14;;;;;;;;;;;;;;;;;;4957567;28;20385;-79
2023/03/22 04:37:41;;;;;;;;;;;;;;;;;;4942022;28;19953;-79
2023/03/22 04:40:15;;;;;;;;;;;;;;;;;;4975483;28;19965;-80
2023/03/22 04:43:02;;;;;;;;;;;;;;;;;;4957345;28;20270;-80
2023/03/22 04:45:53;;;;;;;;;;;;;;;;;;4950212;28;19921;-79
2023/03/22 04:48:22;;;;;;;;;;;;;;;;;;4942009;28;19924;-79
2023/03/22 04:50:52;;;;;;;;;;;;;;;;;;4959507;28;19914;-78
2023/03/22 04:53:25;;;;;;;;;;;;;;;;;;4954872;28;19926;-79
2023/03/22 04:55:51;;;;;;;;;;;;;;;;;;4962000;28;19938;-78
2023/03/22 04:58:20;;;;;;;;;;;;;;;;;;4947486;29;20374;-78
2023/03/22 05:00:46;;;;;;;;;;;;;;;;;;4969318;28;19939;-78
2023/03/22 05:03:12;;;;;;;;;;;;;;;;;;4959106;28;20382;-78
2023/03/22 05:05:41;;;;;;;;;;;;;;;;;;4968033;28;19914;-78
2023/03/22 05:08:07;;;;;;;;;;;;;;;;;;4948006;28;19918;-78
2023/03/22 05:10:32;;;;;;;;;;;;;;;;;;4945012;29;20314;-79
2023/03/22 05:12:58;;;;;;;;;;;;;;;;;;4971785;28;19918;-79
2023/03/22 05:15:31;;;;;;;;;;;;;;;;;;4942687;28;20386;-79
2023/03/22 05:17:57;;;;;;;;;;;;;;;;;;4966388;28;19915;-78
2023/03/22 05:20:23;;;;;;;;;;;;;;;;;;4950681;28;19922;-79
2023/03/22 05:23:01;;;;;;;;;;;;;;;;;;4958975;28;19925;-79
2023/03/22 05:25:27;;;;;;;;;;;;;;;;;;4973385;28;19922;-79
2023/03/22 05:27:53;;;;;;;;;;;;;;;;;;4964932;28;19969;-79
2023/03/22 05:30:41;;;;;;;;;;;;;;;;;;4972465;28;19974;-78
2023/03/22 05:33:20;;;;;;;;;;;;;;;;;;4973675;28;19906;-77
2023/03/22 05:35:46;;;;;;;;;;;;;;;;;;4958846;29;19899;-79
2023/03/22 05:38:11;;;;;;;;;;;;;;;;;;4985692;28;19904;-79
2023/03/22 05:40:41;;;;;;;;;;;;;;;;;;4983189;28;19915;-79
2023/03/22 05:43:06;;;;;;;;;;;;;;;;;;4991230;28;19914;-79
2023/03/22 05:45:31;;;;;;;;;;;;;;;;;;4960558;28;20399;-79
2023/03/22 05:48:05;;;;;;;;;;;;;;;;;;4982264;28;19925;-78
2023/03/22 05:50:31;;;;;;;;;;;;;;;;;;4944837;29;19914;-78
2023/03/22 05:52:56;;;;;;;;;;;;;;;;;;4969618;28;19918;-79
2023/03/22 05:55:43;;;;;;;;;;;;;;;;;;4960649;28;19920;-78
2023/03/22 05:58:09;;;;;;;;;;;;;;;;;;4941327;28;19985;-78
2023/03/22 06:00:37;;;;;;;;;;;;;;;;;;4957601;28;19915;-79
2023/03/22 06:03:29;;;;;;;;;;;;;;;;;;4945800;28;19937;-78
2023/03/22 06:06:05;;;;;;;;;;;;;;;;;;4956977;28;19914;-77
2023/03/22 06:08:39;;;;;;;;;;;;;;;;;;4943013;28;19918;-79
2023/03/22 06:11:05;;;;;;;;;;;;;;;;;;4974777;28;20013;-77
2023/03/22 06:13:30;;;;;;;;;;;;;;;;;;4957205;28;19925;-78
2023/03/22 06:15:56;;;;;;;;;;;;;;;;;;4957159;28;20711;-78
2023/03/22 06:18:24;;;;;;;;;;;;;;;;;;4957149;28;19925;-78
2023/03/22 06:20:56;;;;;;;;;;;;;;;;;;4940872;28;20009;-78
2023/03/22 06:23:22;;;;;;;;;;;;;;;;;;4926471;28;19968;-78
2023/03/22 06:25:47;;;;;;;;;;;;;;;;;;4957207;28;19914;-78
2023/03/22 06:28:14;;;;;;;;;;;;;;;;;;4957541;28;20058;-79
2023/03/22 06:30:47;;;;;;;;;;;;;;;;;;4957590;28;20400;-78
2023/03/22 06:33:18;;;;;;;;;;;;;;;;;;4973624;28;19964;-78
2023/03/22 06:35:47;;;;;;;;;;;;;;;;;;4956351;28;19915;-78
2023/03/22 06:38:19;;;;;;;;;;;;;;;;;;4940515;28;19914;-78
2023/03/22 06:40:45;;;;;;;;;;;;;;;;;;4956410;28;19921;-78
2023/03/22 06:43:10;;;;;;;;;;;;;;;;;;4956920;28;20371;-78
2023/03/22 06:45:39;;;;;;;;;;;;;;;;;;4940910;28;19997;-78
2023/03/22 06:48:05;;;;;;;;;;;;;;;;;;4956875;28;19914;-78
2023/03/22 06:50:47;;;;;;;;;;;;;;;;;;4956613;28;19918;-78
2023/03/22 06:53:24;;;;;;;;;;;;;;;;;;4940967;28;19918;-79
2023/03/22 06:55:51;;;;;;;;;;;;;;;;;;4957080;28;20346;-78
2023/03/22 06:58:18;;;;;;;;;;;;;;;;;;4956232;28;19918;-78
2023/03/22 07:00:44;;;;;;;;;;;;;;;;;;4956749;28;19969;-78
2023/03/22 07:03:09;;;;;;;;;;;;;;;;;;4973630;28;19965;-78
2023/03/22 07:05:53;;;;;;;;;;;;;;;;;;4956511;28;19918;-78
2023/03/22 07:08:18;;;;;;;;;;;;;;;;;;4957015;28;20286;-78
2023/03/22 07:10:48;;;;;;;;;;;;;;;;;;4956683;28;20009;-79
2023/03/22 07:13:13;;;;;;;;;;;;;;;;;;4956401;28;20009;-78
2023/03/22 07:15:40;;;;;;;;;;;;;;;;;;4956132;28;20021;-78
2023/03/22 07:18:12;;;;;;;;;;;;;;;;;;4956906;28;19966;-78
2023/03/22 07:20:40;;;;;;;;;;;;;;;;;;4973489;28;19914;-78
2023/03/22 07:23:05;;;;;;;;;;;;;;;;;;4973637;28;19918;-78
2023/03/22 07:25:37;;;;;;;;;;;;;;;;;;4943218;28;19937;-78
2023/03/22 07:28:16;;;;;;;;;;;;;;;;;;4976893;28;20382;-78
2023/03/22 07:30:42;;;;;;;;;;;;;;;;;;4959901;28;19915;-78
2023/03/22 07:33:07;;;;;;;;;;;;;;;;;;4944186;28;19918;-78
2023/03/22 07:35:33;;;;;;;;;;;;;;;;;;4959350;28;19918;-78
2023/03/22 07:37:58;;;;;;;;;;;;;;;;;;4976836;28;19910;-78
2023/03/22 07:40:29;;;;;;;;;;;;;;;;;;4944449;28;20413;-78
2023/03/22 07:42:55;;;;;;;;;;;;;;;;;;4959645;28;19914;-78
2023/03/22 07:45:39;;;;;;;;;;;;;;;;;;4957981;28;19911;-78
2023/03/22 07:48:34;;;;;;;;;;;;;;;;;;4977727;28;20408;-78
2023/03/22 07:51:19;;;;;;;;;;;;;;;;;;4976510;28;19914;-79
2023/03/22 07:53:44;;;;;;;;;;;;;;;;;;4958976;28;19918;-78
2023/03/22 07:56:10;;;;;;;;;;;;;;;;;;4963635;28;19935;-82
2023/03/22 07:58:35;;;;;;;;;;;;;;;;;;4971299;28;20408;-81
2023/03/22 08:01:01;;;;;;;;;;;;;;;;;;5204405;23;19966;-81
2023/03/22 08:03:57;;;;;;;;;;;;;;;;;;4990051;28;19914;-81
2023/03/22 08:06:45;;;;;;;;;;;;;;;;;;5008774;28;19917;-82
2023/03/22 08:09:11;;;;;;;;;;;;;;;;;;5006821;28;20042;-82
2023/03/22 08:11:36;;;;;;;;;;;;;;;;;;4981090;28;20000;-81
2023/03/22 08:14:02;;;;;;;;;;;;;;;;;;4996432;28;19922;-83
2023/03/22 08:16:29;;;;;;;;;;;;;;;;;;4961405;28;20394;-82
2023/03/22 08:18:56;;;;;;;;;;;;;;;;;;4975374;28;19914;-82
2023/03/22 08:21:23;;;;;;;;;;;;;;;;;;4990370;28;19915;-82
2023/03/22 08:23:51;;;;;;;;;;;;;;;;;;4979448;28;19914;-82
2023/03/22 08:26:52;;;;;;;;;;;;;;;;;;4963082;28;19949;-79
2023/03/22 08:29:28;;;;;;;;;;;;;;;;;;4958126;28;20039;-79
2023/03/22 08:31:55;;;;;;;;;;;;;;;;;;4967074;28;19960;-79
2023/03/22 08:34:20;;;;;;;;;;;;;;;;;;4971690;28;19918;-83
2023/03/22 08:36:45;;;;;;;;;;;;;;;;;;4969783;28;19952;-82
2023/03/22 08:39:11;;;;;;;;;;;;;;;;;;4965366;28;20291;-79
2023/03/22 08:41:49;;;;;;;;;;;;;;;;;;4972202;28;20404;-78
2023/03/22 08:44:14;;;;;;;;;;;;;;;;;;4954931;28;19914;-77
2023/03/22 08:46:40;;;;;;;;;;;;;;;;;;4986878;28;19964;-78
2023/03/22 08:49:05;;;;;;;;;;;;;;;;;;4957978;28;19914;-78
2023/03/22 08:51:34;;;;;;;;;;;;;;;;;;4981219;28;19999;-77
2023/03/22 08:54:11;;;;;;;;;;;;;;;;;;4989113;28;19918;-79
2023/03/22 08:57:08;;;;;;;;;;;;;;;;;;4997962;28;19929;-78
2023/03/22 08:59:59;;;;;;;;;;;;;;;;;;5003968;28;19928;-79
2023/03/22 09:02:33;;;;;;;;;;;;;;;;;;4985758;28;19914;-79
2023/03/22 09:04:59;;;;;;;;;;;;;;;;;;4971050;28;19915;-78
2023/03/22 09:07:26;;;;;;;;;;;;;;;;;;4980113;28;19914;-78
2023/03/22 09:10:09;;;;;;;;;;;;;;;;;;4970941;28;19920;-78
2023/03/22 09:12:38;;;;;;;;;;;;;;;;;;4964504;28;19965;-79
2023/03/22 09:15:03;;;;;;;;;;;;;;;;;;4978230;28;19917;-78
2023/03/22 09:17:29;;;;;;;;;;;;;;;;;;4957134;28;19915;-79
2023/03/22 09:19:54;;;;;;;;;;;;;;;;;;4946814;28;20021;-78
2023/03/22 09:22:20;;;;;;;;;;;;;;;;;;4950765;28;20240;-80
2023/03/22 09:24:47;;;;;;;;;;;;;;;;;;4978708;28;19914;-79
2023/03/22 09:27:12;;;;;;;;;;;;;;;;;;4960471;28;19921;-78
2023/03/22 09:29:38;;;;;;;;;;;;;;;;;;4980374;28;19976;-78
2023/03/22 09:32:07;;;;;;;;;;;;;;;;;;4964783;28;19925;-79
2023/03/22 09:34:35;;;;;;;;;;;;;;;;;;4978543;28;20385;-79
2023/03/22 09:37:02;;;;;;;;;;;;;;;;;;4964560;28;19922;-79
2023/03/22 09:39:37;;;;;;;;;;;;;;;;;;4985079;28;19898;-84
2023/03/22 09:42:03;;;;;;;;;;;;;;;;;;4966766;28;19913;-81
2023/03/22 09:44:30;;;;;;;;;;;;;;;;;;5423411;23;20407;-82
2023/03/22 09:46:55;;;;;;;;;;;;;;;;;;5008197;28;20475;-82
2023/03/22 10:02:50;;;;;;;;;;;;;;;;;;5941798;23;19918;-82
2023/03/22 10:05:16;;;;;;;;;;;;;;;;;;4986828;28;19917;-84
2023/03/22 10:10:18;;;;;;;;;;;;;;;;;;5294219;23;19910;-83
2023/03/22 10:20:49;;;;;;;;;;;;;;;;;;5613705;23;19909;-85
2023/03/22 10:23:15;;;;;;;;;;;;;;;;;;5352194;23;19924;-82
2023/03/22 10:28:25;;;;;;;;;;;;;;;;;;6068629;23;19920;-82
2023/03/22 10:46:55;;;;;;;;;;;;;;;;;;4978828;28;19946;-85
2023/03/22 10:52:05;;;;;;;;;;;;;;;;;;5337270;23;19929;-85
2023/03/22 10:54:30;;;;;;;;;;;;;;;;;;5002101;28;19909;-86
2023/03/22 10:56:56;;;;;;;;;;;;;;;;;;5500347;23;19909;-83
2023/03/22 10:59:22;;;;;;;;;;;;;;;;;;5037762;28;20388;-83
2023/03/22 11:01:47;;;;;;;;;;;;;;;;;;5036802;28;19948;-83
2023/03/22 11:04:13;;;;;;;;;;;;;;;;;;5020675;28;19913;-83
2023/03/22 11:06:39;;;;;;;;;;;;;;;;;;5032101;28;19913;-84
2023/03/22 11:09:05;;;;;;;;;;;;;;;;;;5042021;28;19901;-84
2023/03/22 11:11:33;;;;;;;;;;;;;;;;;;5039435;28;19936;-82
2023/03/22 11:13:58;;;;;;;;;;;;;;;;;;5002712;28;19922;-82
2023/03/22 11:16:24;;;;;;;;;;;;;;;;;;5017954;28;19921;-82
2023/03/22 11:18:50;;;;;;;;;;;;;;;;;;5002893;28;19914;-80
2023/03/22 11:21:15;;;;;;;;;;;;;;;;;;4999250;28;19909;-80
2023/03/22 11:23:41;;;;;;;;;;;;;;;;;;5010403;28;19914;-83
2023/03/22 11:26:06;;;;;;;;;;;;;;;;;;5022949;28;20105;-81
2023/03/22 11:28:32;;;;;;;;;;;;;;;;;;5002548;28;20301;-81
2023/03/22 11:30:57;;;;;;;;;;;;;;;;;;5030577;28;19929;-82
2023/03/22 11:33:24;;;;;;;;;;;;;;;;;;4973545;28;19921;-84
2023/03/22 11:35:50;;;;;;;;;;;;;;;;;;4978128;28;19917;-81
2023/03/22 11:38:15;;;;;;;;;;;;;;;;;;5009315;28;20258;-81
2023/03/22 11:40:41;;;;;;;;;;;;;;;;;;4962892;28;19949;-80
2023/03/22 11:43:06;;;;;;;;;;;;;;;;;;4992360;28;20388;-78
2023/03/22 11:45:31;;;;;;;;;;;;;;;;;;4996451;28;20057;-79
2023/03/22 11:47:57;;;;;;;;;;;;;;;;;;4997036;28;19918;-79
2023/03/22 11:50:22;;;;;;;;;;;;;;;;;;4980205;28;19914;-79
2023/03/22 11:52:48;;;;;;;;;;;;;;;;;;4980020;28;20408;-79
2023/03/22 11:55:13;;;;;;;;;;;;;;;;;;4963060;28;19992;-79
2023/03/22 11:57:39;;;;;;;;;;;;;;;;;;4997274;28;20281;-79
2023/03/22 12:00:10;;;;;;;;;;;;;;;;;;4995738;28;20290;-79
2023/03/22 12:02:35;;;;;;;;;;;;;;;;;;4978862;28;19914;-79
2023/03/22 12:05:01;;;;;;;;;;;;;;;;;;4963387;28;20005;-79
2023/03/22 12:07:26;;;;;;;;;;;;;;;;;;4980070;28;19921;-78
2023/03/22 12:09:52;;;;;;;;;;;;;;;;;;4998469;28;19953;-78
2023/03/22 12:12:18;;;;;;;;;;;;;;;;;;5004825;28;19928;-79
2023/03/22 12:14:43;;;;;;;;;;;;;;;;;;4982443;28;19914;-79
2023/03/22 12:17:09;;;;;;;;;;;;;;;;;;4996738;28;19986;-79
2023/03/22 12:19:34;;;;;;;;;;;;;;;;;;5017283;28;19894;-79
2023/03/22 12:21:59;;;;;;;;;;;;;;;;;;4999998;28;19914;-79
2023/03/22 12:24:25;;;;;;;;;;;;;;;;;;4999938;23;20415;-77
2023/03/22 12:26:51;;;;;;;;;;;;;;;;;;4977146;28;19914;-78
2023/03/22 12:29:17;;;;;;;;;;;;;;;;;;4977493;28;19941;-79
2023/03/22 12:31:42;;;;;;;;;;;;;;;;;;4994548;28;20346;-78
2023/03/22 12:34:07;;;;;;;;;;;;;;;;;;4969514;28;19948;-79
2023/03/22 12:36:33;;;;;;;;;;;;;;;;;;4976970;28;19952;-79
2023/03/22 12:38:59;;;;;;;;;;;;;;;;;;4994534;28;20284;-78
2023/03/22 12:41:25;;;;;;;;;;;;;;;;;;4993985;28;20329;-79
2023/03/22 12:43:50;;;;;;;;;;;;;;;;;;4994181;28;19914;-79
2023/03/22 12:46:15;;;;;;;;;;;;;;;;;;4976460;28;20134;-78
2023/03/22 12:48:41;;;;;;;;;;;;;;;;;;4960732;28;20333;-78
2023/03/22 12:51:09;;;;;;;;;;;;;;;;;;4976968;28;19925;-81
2023/03/22 12:53:41;;;;;;;;;;;;;;;;;;4992859;28;19918;-79
2023/03/22 12:56:06;;;;;;;;;;;;;;;;;;4976554;28;19914;-78
2023/03/22 12:58:32;;;;;;;;;;;;;;;;;;4992492;28;19936;-81
2023/03/22 13:00:57;;;;;;;;;;;;;;;;;;4960451;28;19921;-80
2023/03/22 13:03:23;;;;;;;;;;;;;;;;;;4976658;28;19913;-79
2023/03/22 13:05:50;;;;;;;;;;;;;;;;;;4960798;28;19914;-80
2023/03/22 13:08:15;;;;;;;;;;;;;;;;;;4976614;28;19936;-81
2023/03/22 13:10:41;;;;;;;;;;;;;;;;;;4976759;28;19914;-81
2023/03/22 13:13:06;;;;;;;;;;;;;;;;;;4976280;28;20376;-82
2023/03/22 13:15:32;;;;;;;;;;;;;;;;;;4976228;28;20274;-80
2023/03/22 13:17:57;;;;;;;;;;;;;;;;;;4993928;28;19942;-79
2023/03/22 13:20:26;;;;;;;;;;;;;;;;;;4960266;28;20274;-81
2023/03/22 13:22:52;;;;;;;;;;;;;;;;;;4992470;28;19918;-80
2023/03/22 13:25:18;;;;;;;;;;;;;;;;;;4959926;28;20338;-79
2023/03/22 13:27:43;;;;;;;;;;;;;;;;;;4992658;28;20325;-83
2023/03/22 13:30:09;;;;;;;;;;;;;;;;;;4992490;28;19914;-79
2023/03/22 13:32:36;;;;;;;;;;;;;;;;;;4992142;28;20300;-78
2023/03/22 13:35:02;;;;;;;;;;;;;;;;;;4975719;28;19917;-78
2023/03/22 13:37:29;;;;;;;;;;;;;;;;;;4960161;28;19921;-80
2023/03/22 13:40:00;;;;;;;;;;;;;;;;;;4975743;28;19944;-77
2023/03/22 13:42:28;;;;;;;;;;;;;;;;;;4992241;28;19956;-79
2023/03/22 13:44:55;;;;;;;;;;;;;;;;;;4992786;28;19939;-80
2023/03/22 13:47:21;;;;;;;;;;;;;;;;;;4992286;28;19914;-79
2023/03/22 13:49:46;;;;;;;;;;;;;;;;;;4959370;28;19937;-77
2023/03/22 13:52:12;;;;;;;;;;;;;;;;;;4991565;28;19917;-81
2023/03/22 13:54:38;;;;;;;;;;;;;;;;;;4991593;28;20004;-79
2023/03/22 13:57:03;;;;;;;;;;;;;;;;;;4975674;28;20399;-79
2023/03/22 13:59:29;;;;;;;;;;;;;;;;;;4975684;28;19914;-78
2023/03/22 14:01:55;;;;;;;;;;;;;;;;;;4991813;28;19914;-77
2023/03/22 14:04:21;;;;;;;;;;;;;;;;;;4991978;28;19914;-77
2023/03/22 14:06:47;;;;;;;;;;;;;;;;;;4991343;28;19918;-77
2023/03/22 14:09:12;;;;;;;;;;;;;;;;;;4991633;28;19914;-79
2023/03/22 14:11:38;;;;;;;;;;;;;;;;;;4991736;28;19960;-80
2023/03/22 14:14:07;;;;;;;;;;;;;;;;;;4992819;28;20008;-80
2023/03/22 14:16:33;;;;;;;;;;;;;;;;;;4991608;28;19971;-80
2023/03/22 14:19:00;;;;;;;;;;;;;;;;;;4975820;28;19921;-78
2023/03/22 14:21:26;;;;;;;;;;;;;;;;;;4992668;28;19945;-80
2023/03/22 14:23:52;;;;;;;;;;;;;;;;;;4991685;28;19968;-80
2023/03/22 14:26:18;;;;;;;;;;;;;;;;;;4975357;28;19976;-79
2023/03/22 14:28:44;;;;;;;;;;;;;;;;;;4992438;28;20413;-79
2023/03/22 14:31:09;;;;;;;;;;;;;;;;;;4991527;28;20297;-78
2023/03/22 14:33:36;;;;;;;;;;;;;;;;;;4974809;28;19918;-78
2023/03/22 14:36:03;;;;;;;;;;;;;;;;;;4990988;28;20004;-78
2023/03/22 14:38:28;;;;;;;;;;;;;;;;;;4991742;28;20004;-78
2023/03/22 14:40:54;;;;;;;;;;;;;;;;;;4991537;28;20004;-77
2023/03/22 14:43:19;;;;;;;;;;;;;;;;;;4992971;28;20274;-77
2023/03/22 14:45:45;;;;;;;;;;;;;;;;;;4993573;28;19914;-79
2023/03/22 14:48:11;;;;;;;;;;;;;;;;;;4977311;28;19968;-79
2023/03/22 14:50:36;;;;;;;;;;;;;;;;;;4977565;28;19918;-78
2023/03/22 14:53:02;;;;;;;;;;;;;;;;;;4993637;28;19917;-77
2023/03/22 14:55:28;;;;;;;;;;;;;;;;;;4991975;28;20377;-77
2023/03/22 14:57:54;;;;;;;;;;;;;;;;;;4994919;28;19964;-79
2023/03/22 15:00:21;;;;;;;;;;;;;;;;;;4993034;28;19945;-78
2023/03/22 15:02:46;;;;;;;;;;;;;;;;;;4991262;28;19925;-79
2023/03/22 15:05:12;;;;;;;;;;;;;;;;;;4959046;28;19914;-79
2023/03/22 15:07:37;;;;;;;;;;;;;;;;;;4992367;28;19909;-79
2023/03/22 15:10:03;;;;;;;;;;;;;;;;;;4992607;28;20377;-78
2023/03/22 15:12:29;;;;;;;;;;;;;;;;;;4991263;28;20408;-79
2023/03/22 15:14:54;;;;;;;;;;;;;;;;;;4974657;28;20026;-77
2023/03/22 15:17:20;;;;;;;;;;;;;;;;;;4975214;28;19914;-78
2023/03/22 15:19:45;;;;;;;;;;;;;;;;;;4991062;28;19913;-78
2023/03/22 15:22:11;;;;;;;;;;;;;;;;;;4991201;28;19918;-79
2023/03/22 15:24:36;;;;;;;;;;;;;;;;;;4991753;28;19956;-78
2023/03/22 15:27:02;;;;;;;;;;;;;;;;;;4975078;28;20305;-79
2023/03/22 15:29:28;;;;;;;;;;;;;;;;;;4991335;28;19910;-80
2023/03/22 15:31:53;;;;;;;;;;;;;;;;;;4992017;28;19964;-78
2023/03/22 15:34:19;;;;;;;;;;;;;;;;;;4990565;28;19914;-78
2023/03/22 15:36:45;;;;;;;;;;;;;;;;;;4991718;28;19914;-79
2023/03/22 15:39:10;;;;;;;;;;;;;;;;;;4991091;28;20001;-80
2023/03/22 15:41:35;;;;;;;;;;;;;;;;;;4990992;28;20004;-79
2023/03/22 15:44:02;;;;;;;;;;;;;;;;;;4958422;28;19980;-79
2023/03/22 15:46:27;;;;;;;;;;;;;;;;;;4993025;28;19910;-79
2023/03/22 15:48:53;;;;;;;;;;;;;;;;;;4994163;28;19918;-79
2023/03/22 15:51:19;;;;;;;;;;;;;;;;;;4995208;28;19922;-80
2023/03/22 15:53:44;;;;;;;;;;;;;;;;;;4995329;28;19922;-78
2023/03/22 15:56:11;;;;;;;;;;;;;;;;;;4993869;28;19921;-79
2023/03/22 15:58:36;;;;;;;;;;;;;;;;;;4994186;28;19926;-79
2023/03/22 16:01:01;;;;;;;;;;;;;;;;;;4995293;28;20293;-78
2023/03/22 16:03:27;;;;;;;;;;;;;;;;;;4995423;28;19913;-77
2023/03/22 16:05:53;;;;;;;;;;;;;;;;;;4993790;28;19921;-78
2023/03/22 16:08:18;;;;;;;;;;;;;;;;;;4993808;28;19920;-79
2023/03/22 16:10:44;;;;;;;;;;;;;;;;;;4993850;28;19914;-79
2023/03/22 16:13:09;;;;;;;;;;;;;;;;;;4995223;28;19957;-77
2023/03/22 16:15:35;;;;;;;;;;;;;;;;;;4993997;28;19936;-79
2023/03/22 16:18:01;;;;;;;;;;;;;;;;;;4977411;28;19921;-77
2023/03/22 16:20:32;;;;;;;;;;;;;;;;;;4993583;28;20000;-82
2023/03/22 16:22:58;;;;;;;;;;;;;;;;;;4993975;28;19914;-79
2023/03/22 16:25:24;;;;;;;;;;;;;;;;;;4995728;28;20278;-78
2023/03/22 16:27:50;;;;;;;;;;;;;;;;;;4977268;28;19914;-78
2023/03/22 16:30:16;;;;;;;;;;;;;;;;;;4977217;28;19920;-77
2023/03/22 16:32:41;;;;;;;;;;;;;;;;;;4993119;28;19962;-78
2023/03/22 16:35:07;;;;;;;;;;;;;;;;;;4976925;28;19933;-78
2023/03/22 16:37:33;;;;;;;;;;;;;;;;;;4994554;28;19949;-78
2023/03/22 16:39:59;;;;;;;;;;;;;;;;;;4993435;28;19910;-77
2023/03/22 16:42:27;;;;;;;;;;;;;;;;;;4994591;28;20397;-78
2023/03/22 16:44:53;;;;;;;;;;;;;;;;;;4960493;28;20004;-77
2023/03/22 16:47:18;;;;;;;;;;;;;;;;;;4977099;28;19949;-79
2023/03/22 16:49:44;;;;;;;;;;;;;;;;;;4977013;28;20308;-78
2023/03/22 16:52:12;;;;;;;;;;;;;;;;;;4977139;28;19972;-79
2023/03/22 16:54:38;;;;;;;;;;;;;;;;;;4992735;28;19945;-78
2023/03/22 16:57:03;;;;;;;;;;;;;;;;;;4976240;28;19953;-78
2023/03/22 16:59:29;;;;;;;;;;;;;;;;;;4976732;28;20304;-78
2023/03/22 17:01:54;;;;;;;;;;;;;;;;;;4976905;28;20436;-79
2023/03/22 17:04:20;;;;;;;;;;;;;;;;;;4994162;28;19917;-78
2023/03/22 17:06:46;;;;;;;;;;;;;;;;;;4975979;28;19918;-77
2023/03/22 17:09:11;;;;;;;;;;;;;;;;;;4960488;28;20262;-78
2023/03/22 17:11:37;;;;;;;;;;;;;;;;;;4994012;28;19995;-78
2023/03/22 17:14:03;;;;;;;;;;;;;;;;;;4992581;28;19953;-77
2023/03/22 17:16:30;;;;;;;;;;;;;;;;;;4993627;28;19914;-78
2023/03/22 17:18:56;;;;;;;;;;;;;;;;;;4976606;28;20000;-80
2023/03/22 17:21:21;;;;;;;;;;;;;;;;;;4976312;28;20369;-81
2023/03/22 17:23:47;;;;;;;;;;;;;;;;;;4992124;28;19922;-80
2023/03/22 17:26:12;;;;;;;;;;;;;;;;;;4992307;28;19914;-81
2023/03/22 17:28:38;;;;;;;;;;;;;;;;;;4960581;28;19944;-80
2023/03/22 17:31:05;;;;;;;;;;;;;;;;;;4960329;28;20345;-80
2023/03/22 17:33:30;;;;;;;;;;;;;;;;;;4993474;28;19922;-81
2023/03/22 17:35:56;;;;;;;;;;;;;;;;;;4991916;28;19918;-79